»·PEaware :: N5954W KCNO-KSBP

N5954W :: KCNO-KSBP

FLIGHT INFORMATION

Flight Status: Arrived
Operator: Privately registered:
United States
More flights under this callsign
Pilot: Joshua M. (19482)
Aircraft: BEECH AIRCRAFT A90-E90 KING AIR
(BE9L)
More flights by this aircraft type
Origin: KCNO Chino
United States
Destination: KSBP San Luis Co Regl
United States
More flights between these airports :: More routes between these airports
Route: +PDZ V186 RZS MQO
File this flight plan on PilotEdge
Remarks: Outdated NAV Default XPlane
Altitude:
(Current/Filed)
9,000ft
Speed:
(Current/Filed)
240kts
Departed: 10-Aug-18 10:20 AM
Arrived: 10-Aug-18 11:27 AM
Distance/Time
Traveled:
167nm/1:07
Distance/Time
To Go:
Arrived

Flight Plot

Page will automatically refresh every two minutes.


Map Options




Map Legend


Flown Route
Filed Route
Departure Airport
Arrival Airport
Navaid (VOR, NDB)
Fix

Horizontal Profiles

Position Reports

Time Latitude Longitude Heading Altitude Ground
Speed
10-Aug-18 10:04 33.977930 -117.637618 270 652ft 0kts
10-Aug-18 10:05 33.977930 -117.637618 270 652ft 0kts
10-Aug-18 10:06 33.977930 -117.637618 270 652ft 0kts
10-Aug-18 10:07 33.977930 -117.637618 270 652ft 0kts
10-Aug-18 10:08 33.977930 -117.637618 269 652ft 0kts
10-Aug-18 10:09 33.977930 -117.637618 269 652ft 0kts
10-Aug-18 10:10 33.977930 -117.637618 269 652ft 0kts
10-Aug-18 10:11 33.977930 -117.637618 269 652ft 0kts
10-Aug-18 10:12 33.977930 -117.637618 269 652ft 0kts
10-Aug-18 10:13 33.977930 -117.637618 269 652ft 0kts
10-Aug-18 10:14 33.977930 -117.637618 269 652ft 0kts
10-Aug-18 10:15 33.977930 -117.637618 269 652ft 0kts
10-Aug-18 10:16 33.977930 -117.637618 269 652ft 0kts
10-Aug-18 10:17 33.977930 -117.637618 269 652ft 0kts
10-Aug-18 10:18 33.977809 -117.635986 159 652ft 13kts
10-Aug-18 10:19 33.976963 -117.632769 90 652ft 15kts
10-Aug-18 10:20 33.976514 -117.630830 181 652ft 3kts
10-Aug-18 10:21 33.975778 -117.637438 268 652ft 99kts
10-Aug-18 10:22 33.976187 -117.678240 271 1635ft 154kts
10-Aug-18 10:23 33.976930 -117.719044 271 2974ft 157kts
10-Aug-18 10:24 33.977430 -117.764057 271 4303ft 160kts
10-Aug-18 10:25 33.985443 -117.807614 301 4995ft 186kts
10-Aug-18 10:26 34.007205 -117.852695 301 5668ft 190kts
10-Aug-18 10:27 34.029226 -117.898670 301 5994ft 206kts
10-Aug-18 10:28 34.051535 -117.946383 295 7422ft 169kts
10-Aug-18 10:29 34.067673 -117.992869 295 8434ft 173kts
10-Aug-18 10:30 34.084731 -118.041807 295 9383ft 177kts
10-Aug-18 10:31 34.101113 -118.089440 294 9997ft 192kts
10-Aug-18 10:32 34.120468 -118.148566 293 10004ft 216kts
10-Aug-18 10:33 34.138685 -118.204431 293 10003ft 222kts
10-Aug-18 10:34 34.156750 -118.259952 293 10003ft 224kts
10-Aug-18 10:35 34.176541 -118.320892 293 10003ft 224kts
10-Aug-18 10:36 34.193337 -118.372708 293 10003ft 224kts
10-Aug-18 10:37 34.209606 -118.422978 293 10003ft 224kts
10-Aug-18 10:38 34.225345 -118.471693 293 10003ft 224kts
10-Aug-18 10:39 34.240697 -118.519285 293 10003ft 224kts
10-Aug-18 10:40 34.258773 -118.575419 293 10003ft 224kts
10-Aug-18 10:41 34.276758 -118.631368 293 10003ft 224kts
10-Aug-18 10:42 34.292591 -118.680716 293 10001ft 224kts
10-Aug-18 10:43 34.311341 -118.739323 293 10526ft 198kts
10-Aug-18 10:44 34.328161 -118.791924 293 11506ft 187kts
10-Aug-18 10:45 34.345482 -118.846187 293 12230ft 190kts
10-Aug-18 10:46 34.354538 -118.903947 267 12910ft 195kts
10-Aug-18 10:47 34.350399 -118.966341 266 13560ft 196kts
10-Aug-18 10:48 34.345911 -119.028185 266 14144ft 198kts
10-Aug-18 10:49 34.367778 -119.078659 306 14640ft 193kts
10-Aug-18 10:50 34.394799 -119.128853 306 15111ft 194kts
10-Aug-18 10:51 34.422456 -119.180246 306 15573ft 195kts
10-Aug-18 10:52 34.449709 -119.231005 306 15987ft 196kts
10-Aug-18 10:53 34.474622 -119.277463 306 16031ft 208kts
10-Aug-18 10:54 34.502383 -119.329327 306 16030ft 214kts
10-Aug-18 10:55 34.527471 -119.376255 306 16030ft 216kts
10-Aug-18 10:56 34.555919 -119.429545 306 16030ft 217kts
10-Aug-18 10:57 34.582617 -119.479629 306 16030ft 217kts
10-Aug-18 10:58 34.609401 -119.529935 306 16030ft 218kts
10-Aug-18 10:59 34.640663 -119.588747 306 16031ft 224kts
10-Aug-18 11:00 34.670982 -119.645882 306 16030ft 225kts
10-Aug-18 11:01 34.701013 -119.702572 305 15934ft 222kts
10-Aug-18 11:02 34.730503 -119.758259 305 14894ft 222kts
10-Aug-18 11:03 34.759456 -119.813076 305 13958ft 220kts
10-Aug-18 11:04 34.785668 -119.862779 305 13159ft 218kts
10-Aug-18 11:05 34.812225 -119.913101 307 12394ft 216kts
10-Aug-18 11:06 34.838568 -119.959561 309 11715ft 213kts
10-Aug-18 11:07 34.865966 -120.005488 308 11089ft 210kts
10-Aug-18 11:08 34.891352 -120.048778 308 10335ft 206kts
10-Aug-18 11:09 34.913724 -120.086787 308 9616ft 202kts
10-Aug-18 11:10 34.934917 -120.122771 308 8352ft 196kts
10-Aug-18 11:11 34.956254 -120.159068 307 7492ft 193kts
10-Aug-18 11:12 34.977197 -120.194724 307 6704ft 190kts
10-Aug-18 11:13 34.999308 -120.232415 307 6041ft 178kts
10-Aug-18 11:14 35.019117 -120.266225 307 5811ft 143kts
10-Aug-18 11:15 35.036976 -120.296726 307 5440ft 142kts
10-Aug-18 11:16 35.054683 -120.326988 307 5055ft 140kts
10-Aug-18 11:17 35.073370 -120.358948 307 4673ft 134kts
10-Aug-18 11:18 35.090785 -120.388727 306 4190ft 127kts
10-Aug-18 11:19 35.107960 -120.418145 306 3547ft 127kts
10-Aug-18 11:20 35.125932 -120.448947 306 3144ft 122kts
10-Aug-18 11:21 35.141639 -120.475871 306 2931ft 118kts
10-Aug-18 11:22 35.156989 -120.502231 306 2929ft 119kts
10-Aug-18 11:23 35.172542 -120.528121 307 2400ft 119kts
10-Aug-18 11:24 35.187419 -120.553428 306 1762ft 115kts
10-Aug-18 11:25 35.200377 -120.576220 305 1369ft 112kts
10-Aug-18 11:26 35.213567 -120.599685 305 1000ft 114kts
10-Aug-18 11:27 35.225880 -120.621131 306 573ft 114kts
10-Aug-18 11:28 35.237306 -120.641037 299 214ft 36kts
10-Aug-18 11:29 35.240231 -120.643694 34 214ft 0kts

Navigation Log

Ident Type
1. KCNO Airport
2. PDZ Navaid
3. TIFNI Fix
4. BAYJY Fix
5. ADAMM Fix
6. PIRRO Fix
7. ITSME Fix
8. ELMOO Fix
9. PURMS Fix
10. DARTS Fix
11. VNY Navaid
12. SESPE Fix
13. FIM Navaid
14. HENER Fix
15. DEANO Fix
16. ZIQOR Fix
17. RZS Navaid
18. MQO Navaid
19. KSBP Airport